sensor_id;sensor_type;location;lat;lon;timestamp;P1;durP1;ratioP1;P2;durP2;ratioP2
7398;SDS011;3740;50.700;7.184;2023-05-07T00:02:20;3.50;;;3.20;;
7398;SDS011;3740;50.700;7.184;2023-05-07T00:04:46;3.07;;;2.80;;
7398;SDS011;3740;50.700;7.184;2023-05-07T00:07:11;3.70;;;3.40;;
7398;SDS011;3740;50.700;7.184;2023-05-07T00:09:37;4.90;;;3.73;;
7398;SDS011;3740;50.700;7.184;2023-05-07T00:12:02;3.30;;;3.00;;
7398;SDS011;3740;50.700;7.184;2023-05-07T00:14:28;3.23;;;2.97;;
7398;SDS011;3740;50.700;7.184;2023-05-07T00:16:53;3.33;;;3.03;;
7398;SDS011;3740;50.700;7.184;2023-05-07T00:19:20;3.23;;;2.90;;
7398;SDS011;3740;50.700;7.184;2023-05-07T00:21:45;3.37;;;3.07;;
7398;SDS011;3740;50.700;7.184;2023-05-07T00:24:11;3.93;;;3.23;;
7398;SDS011;3740;50.700;7.184;2023-05-07T00:26:36;4.27;;;3.20;;
7398;SDS011;3740;50.700;7.184;2023-05-07T00:29:02;3.43;;;3.13;;
7398;SDS011;3740;50.700;7.184;2023-05-07T00:31:27;3.33;;;3.03;;
7398;SDS011;3740;50.700;7.184;2023-05-07T00:33:53;4.40;;;3.37;;
7398;SDS011;3740;50.700;7.184;2023-05-07T00:36:18;3.57;;;3.00;;
7398;SDS011;3740;50.700;7.184;2023-05-07T00:38:44;4.17;;;3.20;;
7398;SDS011;3740;50.700;7.184;2023-05-07T00:41:10;3.13;;;2.93;;
7398;SDS011;3740;50.700;7.184;2023-05-07T00:43:35;3.97;;;3.00;;
7398;SDS011;3740;50.700;7.184;2023-05-07T00:46:01;3.70;;;3.40;;
7398;SDS011;3740;50.700;7.184;2023-05-07T00:48:26;4.73;;;3.63;;
7398;SDS011;3740;50.700;7.184;2023-05-07T00:50:52;3.90;;;3.43;;
7398;SDS011;3740;50.700;7.184;2023-05-07T00:53:18;4.80;;;3.20;;
7398;SDS011;3740;50.700;7.184;2023-05-07T00:55:44;3.43;;;3.13;;
7398;SDS011;3740;50.700;7.184;2023-05-07T00:58:09;3.60;;;3.30;;
7398;SDS011;3740;50.700;7.184;2023-05-07T01:00:35;3.53;;;3.23;;
7398;SDS011;3740;50.700;7.184;2023-05-07T01:03:01;3.43;;;2.90;;
7398;SDS011;3740;50.700;7.184;2023-05-07T01:05:28;3.30;;;3.00;;
7398;SDS011;3740;50.700;7.184;2023-05-07T01:07:55;2.97;;;2.77;;
7398;SDS011;3740;50.700;7.184;2023-05-07T01:10:22;3.10;;;2.83;;
7398;SDS011;3740;50.700;7.184;2023-05-07T01:12:49;3.30;;;3.00;;
7398;SDS011;3740;50.700;7.184;2023-05-07T01:15:15;3.23;;;2.90;;
7398;SDS011;3740;50.700;7.184;2023-05-07T01:17:41;3.03;;;2.83;;
7398;SDS011;3740;50.700;7.184;2023-05-07T01:20:08;2.87;;;2.67;;
7398;SDS011;3740;50.700;7.184;2023-05-07T01:22:35;2.73;;;2.53;;
7398;SDS011;3740;50.700;7.184;2023-05-07T01:25:05;2.80;;;2.60;;
7398;SDS011;3740;50.700;7.184;2023-05-07T01:27:32;2.60;;;2.40;;
7398;SDS011;3740;50.700;7.184;2023-05-07T01:30:02;2.87;;;2.63;;
7398;SDS011;3740;50.700;7.184;2023-05-07T01:35:16;3.00;;;2.80;;
7398;SDS011;3740;50.700;7.184;2023-05-07T01:37:45;3.00;;;2.53;;
7398;SDS011;3740;50.700;7.184;2023-05-07T01:40:12;3.13;;;2.83;;
7398;SDS011;3740;50.700;7.184;2023-05-07T01:42:38;3.03;;;2.80;;
7398;SDS011;3740;50.700;7.184;2023-05-07T01:45:05;3.83;;;2.83;;
7398;SDS011;3740;50.700;7.184;2023-05-07T01:47:31;3.30;;;3.00;;
7398;SDS011;3740;50.700;7.184;2023-05-07T01:49:57;3.00;;;2.80;;
7398;SDS011;3740;50.700;7.184;2023-05-07T01:52:24;3.33;;;3.03;;
7398;SDS011;3740;50.700;7.184;2023-05-07T01:54:50;3.80;;;3.50;;
7398;SDS011;3740;50.700;7.184;2023-05-07T01:57:15;3.33;;;3.03;;
7398;SDS011;3740;50.700;7.184;2023-05-07T01:59:41;3.53;;;3.33;;
7398;SDS011;3740;50.700;7.184;2023-05-07T02:02:06;3.50;;;3.17;;
7398;SDS011;3740;50.700;7.184;2023-05-07T02:04:32;3.93;;;3.30;;
7398;SDS011;3740;50.700;7.184;2023-05-07T02:06:57;3.67;;;3.30;;
7398;SDS011;3740;50.700;7.184;2023-05-07T02:09:23;2.97;;;2.77;;
7398;SDS011;3740;50.700;7.184;2023-05-07T02:11:48;3.50;;;2.90;;
7398;SDS011;3740;50.700;7.184;2023-05-07T02:14:14;2.97;;;2.63;;
7398;SDS011;3740;50.700;7.184;2023-05-07T02:16:40;3.57;;;3.20;;
7398;SDS011;3740;50.700;7.184;2023-05-07T02:19:06;3.30;;;2.97;;
7398;SDS011;3740;50.700;7.184;2023-05-07T02:21:31;3.30;;;2.87;;
7398;SDS011;3740;50.700;7.184;2023-05-07T02:23:57;4.37;;;2.83;;
7398;SDS011;3740;50.700;7.184;2023-05-07T02:26:22;3.13;;;2.93;;
7398;SDS011;3740;50.700;7.184;2023-05-07T02:28:48;3.43;;;3.10;;
7398;SDS011;3740;50.700;7.184;2023-05-07T02:31:14;3.23;;;2.93;;
7398;SDS011;3740;50.700;7.184;2023-05-07T02:33:39;3.00;;;2.80;;
7398;SDS011;3740;50.700;7.184;2023-05-07T02:36:05;3.20;;;3.00;;
7398;SDS011;3740;50.700;7.184;2023-05-07T02:38:32;3.40;;;3.10;;
7398;SDS011;3740;50.700;7.184;2023-05-07T02:40:58;3.03;;;2.80;;
7398;SDS011;3740;50.700;7.184;2023-05-07T02:43:24;2.80;;;2.60;;
7398;SDS011;3740;50.700;7.184;2023-05-07T02:45:59;3.20;;;3.00;;
7398;SDS011;3740;50.700;7.184;2023-05-07T02:48:26;3.23;;;2.93;;
7398;SDS011;3740;50.700;7.184;2023-05-07T02:50:52;3.50;;;3.20;;
7398;SDS011;3740;50.700;7.184;2023-05-07T02:53:17;2.93;;;2.73;;
7398;SDS011;3740;50.700;7.184;2023-05-07T02:55:43;3.27;;;2.97;;
7398;SDS011;3740;50.700;7.184;2023-05-07T02:58:09;2.93;;;2.70;;
7398;SDS011;3740;50.700;7.184;2023-05-07T03:00:34;3.17;;;2.87;;
7398;SDS011;3740;50.700;7.184;2023-05-07T03:03:00;2.40;;;2.30;;
7398;SDS011;3740;50.700;7.184;2023-05-07T03:05:25;2.20;;;2.10;;
7398;SDS011;3740;50.700;7.184;2023-05-07T03:07:51;3.10;;;2.90;;
7398;SDS011;3740;50.700;7.184;2023-05-07T03:10:16;3.00;;;2.70;;
7398;SDS011;3740;50.700;7.184;2023-05-07T03:12:43;3.00;;;2.80;;
7398;SDS011;3740;50.700;7.184;2023-05-07T03:15:09;3.10;;;2.70;;
7398;SDS011;3740;50.700;7.184;2023-05-07T03:17:36;2.80;;;2.60;;
7398;SDS011;3740;50.700;7.184;2023-05-07T03:20:02;2.70;;;2.50;;
7398;SDS011;3740;50.700;7.184;2023-05-07T03:22:27;3.00;;;2.80;;
7398;SDS011;3740;50.700;7.184;2023-05-07T03:24:53;2.97;;;2.60;;
7398;SDS011;3740;50.700;7.184;2023-05-07T03:27:18;3.57;;;2.40;;
7398;SDS011;3740;50.700;7.184;2023-05-07T03:29:44;2.77;;;2.50;;
7398;SDS011;3740;50.700;7.184;2023-05-07T03:32:10;2.70;;;2.50;;
7398;SDS011;3740;50.700;7.184;2023-05-07T03:34:35;3.40;;;2.53;;
7398;SDS011;3740;50.700;7.184;2023-05-07T03:37:01;2.57;;;2.37;;
7398;SDS011;3740;50.700;7.184;2023-05-07T03:39:26;2.60;;;2.40;;
7398;SDS011;3740;50.700;7.184;2023-05-07T03:41:52;2.43;;;2.23;;
7398;SDS011;3740;50.700;7.184;2023-05-07T03:44:18;2.33;;;2.23;;
7398;SDS011;3740;50.700;7.184;2023-05-07T03:46:43;2.70;;;2.43;;
7398;SDS011;3740;50.700;7.184;2023-05-07T03:49:09;4.37;;;3.10;;
7398;SDS011;3740;50.700;7.184;2023-05-07T03:51:34;2.70;;;2.50;;
7398;SDS011;3740;50.700;7.184;2023-05-07T03:54:01;3.13;;;2.53;;
7398;SDS011;3740;50.700;7.184;2023-05-07T03:56:26;2.37;;;2.23;;
7398;SDS011;3740;50.700;7.184;2023-05-07T03:58:52;2.70;;;2.33;;
7398;SDS011;3740;50.700;7.184;2023-05-07T04:01:18;2.37;;;2.23;;
7398;SDS011;3740;50.700;7.184;2023-05-07T04:03:44;2.63;;;2.43;;
7398;SDS011;3740;50.700;7.184;2023-05-07T04:06:09;2.60;;;2.40;;
7398;SDS011;3740;50.700;7.184;2023-05-07T04:08:35;2.80;;;2.40;;
7398;SDS011;3740;50.700;7.184;2023-05-07T04:11:01;2.70;;;2.50;;
7398;SDS011;3740;50.700;7.184;2023-05-07T04:13:26;2.60;;;2.40;;
7398;SDS011;3740;50.700;7.184;2023-05-07T04:15:52;2.73;;;2.20;;
7398;SDS011;3740;50.700;7.184;2023-05-07T04:18:20;2.50;;;2.33;;
7398;SDS011;3740;50.700;7.184;2023-05-07T04:20:46;2.70;;;2.50;;
7398;SDS011;3740;50.700;7.184;2023-05-07T04:23:14;2.83;;;2.63;;
7398;SDS011;3740;50.700;7.184;2023-05-07T04:25:39;2.90;;;2.60;;
7398;SDS011;3740;50.700;7.184;2023-05-07T04:28:05;2.93;;;2.67;;
7398;SDS011;3740;50.700;7.184;2023-05-07T04:30:31;3.13;;;2.83;;
7398;SDS011;3740;50.700;7.184;2023-05-07T04:32:56;2.80;;;2.60;;
7398;SDS011;3740;50.700;7.184;2023-05-07T04:35:22;3.13;;;2.50;;
7398;SDS011;3740;50.700;7.184;2023-05-07T04:37:48;3.97;;;2.90;;
7398;SDS011;3740;50.700;7.184;2023-05-07T04:40:13;3.20;;;2.90;;
7398;SDS011;3740;50.700;7.184;2023-05-07T04:42:39;2.90;;;2.60;;
7398;SDS011;3740;50.700;7.184;2023-05-07T04:45:05;2.63;;;2.43;;
7398;SDS011;3740;50.700;7.184;2023-05-07T04:47:30;2.30;;;2.20;;
7398;SDS011;3740;50.700;7.184;2023-05-07T04:49:57;3.33;;;2.60;;
7398;SDS011;3740;50.700;7.184;2023-05-07T04:52:23;2.50;;;2.23;;
7398;SDS011;3740;50.700;7.184;2023-05-07T04:54:48;2.67;;;2.47;;
7398;SDS011;3740;50.700;7.184;2023-05-07T04:57:14;2.53;;;2.33;;
7398;SDS011;3740;50.700;7.184;2023-05-07T04:59:40;2.73;;;2.53;;
7398;SDS011;3740;50.700;7.184;2023-05-07T05:02:05;2.40;;;2.27;;
7398;SDS011;3740;50.700;7.184;2023-05-07T05:04:31;2.70;;;2.50;;
7398;SDS011;3740;50.700;7.184;2023-05-07T05:06:56;2.60;;;2.40;;
7398;SDS011;3740;50.700;7.184;2023-05-07T05:09:22;3.17;;;2.97;;
7398;SDS011;3740;50.700;7.184;2023-05-07T05:11:48;3.20;;;2.90;;
7398;SDS011;3740;50.700;7.184;2023-05-07T05:14:14;2.97;;;2.77;;
7398;SDS011;3740;50.700;7.184;2023-05-07T05:16:39;3.57;;;3.17;;
7398;SDS011;3740;50.700;7.184;2023-05-07T05:19:05;3.50;;;3.20;;
7398;SDS011;3740;50.700;7.184;2023-05-07T05:21:31;3.63;;;3.33;;
7398;SDS011;3740;50.700;7.184;2023-05-07T05:23:56;4.00;;;3.60;;
7398;SDS011;3740;50.700;7.184;2023-05-07T05:26:22;4.20;;;3.80;;
7398;SDS011;3740;50.700;7.184;2023-05-07T05:28:48;4.80;;;4.37;;
7398;SDS011;3740;50.700;7.184;2023-05-07T05:31:14;4.63;;;4.23;;
7398;SDS011;3740;50.700;7.184;2023-05-07T05:33:40;5.47;;;4.23;;
7398;SDS011;3740;50.700;7.184;2023-05-07T05:36:07;5.33;;;4.83;;
7398;SDS011;3740;50.700;7.184;2023-05-07T05:38:35;7.13;;;6.07;;
7398;SDS011;3740;50.700;7.184;2023-05-07T05:41:00;6.03;;;5.43;;
7398;SDS011;3740;50.700;7.184;2023-05-07T05:43:26;4.80;;;4.40;;
7398;SDS011;3740;50.700;7.184;2023-05-07T05:45:51;5.03;;;4.20;;
7398;SDS011;3740;50.700;7.184;2023-05-07T05:48:17;4.90;;;4.40;;
7398;SDS011;3740;50.700;7.184;2023-05-07T05:50:42;4.87;;;4.20;;
7398;SDS011;3740;50.700;7.184;2023-05-07T05:53:08;6.10;;;4.53;;
7398;SDS011;3740;50.700;7.184;2023-05-07T05:55:33;6.23;;;4.67;;
7398;SDS011;3740;50.700;7.184;2023-05-07T05:58:02;4.60;;;4.20;;
7398;SDS011;3740;50.700;7.184;2023-05-07T06:00:28;4.80;;;4.23;;
7398;SDS011;3740;50.700;7.184;2023-05-07T06:02:54;4.70;;;4.30;;
7398;SDS011;3740;50.700;7.184;2023-05-07T06:05:20;4.60;;;4.20;;
7398;SDS011;3740;50.700;7.184;2023-05-07T06:07:45;5.03;;;4.53;;
7398;SDS011;3740;50.700;7.184;2023-05-07T06:10:11;4.87;;;4.47;;
7398;SDS011;3740;50.700;7.184;2023-05-07T06:12:36;4.57;;;4.23;;
7398;SDS011;3740;50.700;7.184;2023-05-07T06:15:02;4.53;;;4.20;;
7398;SDS011;3740;50.700;7.184;2023-05-07T06:17:28;6.73;;;4.90;;
7398;SDS011;3740;50.700;7.184;2023-05-07T06:19:54;4.37;;;3.97;;
7398;SDS011;3740;50.700;7.184;2023-05-07T06:22:19;4.73;;;4.20;;
7398;SDS011;3740;50.700;7.184;2023-05-07T06:24:45;3.80;;;3.50;;
7398;SDS011;3740;50.700;7.184;2023-05-07T06:27:11;3.47;;;3.20;;
7398;SDS011;3740;50.700;7.184;2023-05-07T06:29:36;3.83;;;3.53;;
7398;SDS011;3740;50.700;7.184;2023-05-07T06:32:06;3.75;;;3.45;;
7398;SDS011;3740;50.700;7.184;2023-05-07T06:34:32;3.78;;;3.47;;
7398;SDS011;3740;50.700;7.184;2023-05-07T06:36:58;3.77;;;3.30;;
7398;SDS011;3740;50.700;7.184;2023-05-07T06:39:23;3.72;;;3.40;;
7398;SDS011;3740;50.700;7.184;2023-05-07T06:41:49;3.88;;;3.58;;
7398;SDS011;3740;50.700;7.184;2023-05-07T06:44:15;3.70;;;3.30;;
7398;SDS011;3740;50.700;7.184;2023-05-07T06:46:40;3.83;;;3.40;;
7398;SDS011;3740;50.700;7.184;2023-05-07T06:49:06;3.57;;;3.10;;
7398;SDS011;3740;50.700;7.184;2023-05-07T06:51:32;3.17;;;2.90;;
7398;SDS011;3740;50.700;7.184;2023-05-07T06:53:57;2.97;;;2.78;;
7398;SDS011;3740;50.700;7.184;2023-05-07T06:56:23;5.13;;;3.70;;
7398;SDS011;3740;50.700;7.184;2023-05-07T06:58:49;3.63;;;3.15;;
7398;SDS011;3740;50.700;7.184;2023-05-07T07:01:14;3.33;;;3.03;;
7398;SDS011;3740;50.700;7.184;2023-05-07T07:03:40;3.00;;;2.72;;
7398;SDS011;3740;50.700;7.184;2023-05-07T07:06:06;3.22;;;3.03;;
7398;SDS011;3740;50.700;7.184;2023-05-07T07:08:31;3.83;;;3.13;;
7398;SDS011;3740;50.700;7.184;2023-05-07T07:10:57;3.08;;;2.78;;
7398;SDS011;3740;50.700;7.184;2023-05-07T07:13:23;3.90;;;3.50;;
7398;SDS011;3740;50.700;7.184;2023-05-07T07:15:48;4.88;;;3.80;;
7398;SDS011;3740;50.700;7.184;2023-05-07T07:18:14;4.00;;;3.70;;
7398;SDS011;3740;50.700;7.184;2023-05-07T07:20:40;4.10;;;3.63;;
7398;SDS011;3740;50.700;7.184;2023-05-07T07:23:05;3.83;;;3.53;;
7398;SDS011;3740;50.700;7.184;2023-05-07T07:25:31;4.30;;;3.90;;
7398;SDS011;3740;50.700;7.184;2023-05-07T07:27:57;4.43;;;4.03;;
7398;SDS011;3740;50.700;7.184;2023-05-07T07:30:22;3.95;;;3.55;;
7398;SDS011;3740;50.700;7.184;2023-05-07T07:32:48;4.55;;;3.63;;
7398;SDS011;3740;50.700;7.184;2023-05-07T07:35:13;3.92;;;3.00;;
7398;SDS011;3740;50.700;7.184;2023-05-07T07:37:39;3.90;;;3.60;;
7398;SDS011;3740;50.700;7.184;2023-05-07T07:40:05;3.85;;;3.20;;
7398;SDS011;3740;50.700;7.184;2023-05-07T07:42:31;3.40;;;3.10;;
7398;SDS011;3740;50.700;7.184;2023-05-07T07:44:56;3.50;;;3.20;;
7398;SDS011;3740;50.700;7.184;2023-05-07T07:47:22;3.60;;;3.15;;
7398;SDS011;3740;50.700;7.184;2023-05-07T07:49:48;3.17;;;2.97;;
7398;SDS011;3740;50.700;7.184;2023-05-07T07:52:13;3.55;;;3.25;;
7398;SDS011;3740;50.700;7.184;2023-05-07T07:54:39;3.55;;;3.15;;
7398;SDS011;3740;50.700;7.184;2023-05-07T07:57:05;3.60;;;3.30;;
7398;SDS011;3740;50.700;7.184;2023-05-07T07:59:30;3.33;;;3.03;;
7398;SDS011;3740;50.700;7.184;2023-05-07T08:01:56;3.15;;;2.92;;
7398;SDS011;3740;50.700;7.184;2023-05-07T08:04:22;3.10;;;2.85;;
7398;SDS011;3740;50.700;7.184;2023-05-07T08:06:48;3.65;;;3.30;;
7398;SDS011;3740;50.700;7.184;2023-05-07T08:09:13;3.75;;;2.88;;
7398;SDS011;3740;50.700;7.184;2023-05-07T08:11:39;3.95;;;3.00;;
7398;SDS011;3740;50.700;7.184;2023-05-07T08:14:05;3.30;;;3.00;;
7398;SDS011;3740;50.700;7.184;2023-05-07T08:16:30;3.88;;;3.45;;
7398;SDS011;3740;50.700;7.184;2023-05-07T08:18:56;3.28;;;2.97;;
7398;SDS011;3740;50.700;7.184;2023-05-07T08:21:22;2.85;;;2.50;;
7398;SDS011;3740;50.700;7.184;2023-05-07T08:23:48;4.05;;;3.03;;
7398;SDS011;3740;50.700;7.184;2023-05-07T08:26:14;2.63;;;2.42;;
7398;SDS011;3740;50.700;7.184;2023-05-07T08:28:40;3.10;;;2.53;;
7398;SDS011;3740;50.700;7.184;2023-05-07T08:31:05;2.67;;;2.47;;
7398;SDS011;3740;50.700;7.184;2023-05-07T08:33:31;2.80;;;2.60;;
7398;SDS011;3740;50.700;7.184;2023-05-07T08:35:56;2.70;;;2.50;;
7398;SDS011;3740;50.700;7.184;2023-05-07T08:38:22;2.58;;;2.38;;
7398;SDS011;3740;50.700;7.184;2023-05-07T08:40:47;3.20;;;2.70;;
7398;SDS011;3740;50.700;7.184;2023-05-07T08:43:13;3.55;;;3.25;;
7398;SDS011;3740;50.700;7.184;2023-05-07T08:45:40;3.67;;;2.78;;
7398;SDS011;3740;50.700;7.184;2023-05-07T08:48:09;3.35;;;2.58;;
7398;SDS011;3740;50.700;7.184;2023-05-07T08:50:40;2.60;;;2.40;;
7398;SDS011;3740;50.700;7.184;2023-05-07T08:53:06;2.50;;;2.30;;
7398;SDS011;3740;50.700;7.184;2023-05-07T08:55:31;2.60;;;2.40;;
7398;SDS011;3740;50.700;7.184;2023-05-07T08:57:58;2.58;;;2.38;;
7398;SDS011;3740;50.700;7.184;2023-05-07T09:00:24;3.55;;;2.58;;
7398;SDS011;3740;50.700;7.184;2023-05-07T09:02:50;2.70;;;2.50;;
7398;SDS011;3740;50.700;7.184;2023-05-07T09:05:17;2.70;;;2.50;;
7398;SDS011;3740;50.700;7.184;2023-05-07T09:07:43;2.63;;;2.42;;
7398;SDS011;3740;50.700;7.184;2023-05-07T09:10:09;2.72;;;2.53;;
7398;SDS011;3740;50.700;7.184;2023-05-07T09:12:35;2.58;;;2.22;;
7398;SDS011;3740;50.700;7.184;2023-05-07T09:15:01;2.63;;;2.42;;
7398;SDS011;3740;50.700;7.184;2023-05-07T09:17:28;2.95;;;2.72;;
7398;SDS011;3740;50.700;7.184;2023-05-07T09:19:53;1.85;;;1.75;;
7398;SDS011;3740;50.700;7.184;2023-05-07T09:22:19;3.00;;;2.70;;
7398;SDS011;3740;50.700;7.184;2023-05-07T09:24:48;4.15;;;3.10;;
7398;SDS011;3740;50.700;7.184;2023-05-07T09:27:14;2.70;;;2.50;;
7398;SDS011;3740;50.700;7.184;2023-05-07T09:29:40;3.20;;;2.90;;
7398;SDS011;3740;50.700;7.184;2023-05-07T09:32:07;4.22;;;2.80;;
7398;SDS011;3740;50.700;7.184;2023-05-07T09:34:33;2.83;;;2.60;;
7398;SDS011;3740;50.700;7.184;2023-05-07T09:37:03;3.20;;;2.67;;
7398;SDS011;3740;50.700;7.184;2023-05-07T09:39:40;3.20;;;2.90;;
7398;SDS011;3740;50.700;7.184;2023-05-07T09:42:07;2.78;;;2.55;;
7398;SDS011;3740;50.700;7.184;2023-05-07T09:44:33;3.38;;;2.63;;
7398;SDS011;3740;50.700;7.184;2023-05-07T09:47:00;2.75;;;2.55;;
7398;SDS011;3740;50.700;7.184;2023-05-07T09:49:28;2.97;;;2.30;;
7398;SDS011;3740;50.700;7.184;2023-05-07T09:51:55;2.63;;;2.42;;
7398;SDS011;3740;50.700;7.184;2023-05-07T09:54:24;4.20;;;2.80;;
7398;SDS011;3740;50.700;7.184;2023-05-07T09:56:51;2.70;;;2.50;;
7398;SDS011;3740;50.700;7.184;2023-05-07T09:59:17;2.85;;;2.53;;
7398;SDS011;3740;50.700;7.184;2023-05-07T10:01:45;2.20;;;2.10;;
7398;SDS011;3740;50.700;7.184;2023-05-07T10:04:11;3.17;;;2.38;;
7398;SDS011;3740;50.700;7.184;2023-05-07T10:06:37;2.35;;;2.15;;
7398;SDS011;3740;50.700;7.184;2023-05-07T10:09:03;2.13;;;1.98;;
7398;SDS011;3740;50.700;7.184;2023-05-07T10:11:33;2.10;;;2.00;;
7398;SDS011;3740;50.700;7.184;2023-05-07T10:14:00;2.75;;;2.35;;
7398;SDS011;3740;50.700;7.184;2023-05-07T10:16:35;2.25;;;2.10;;
7398;SDS011;3740;50.700;7.184;2023-05-07T10:19:04;3.08;;;2.42;;
7398;SDS011;3740;50.700;7.184;2023-05-07T10:21:31;2.47;;;2.28;;
7398;SDS011;3740;50.700;7.184;2023-05-07T10:24:06;3.13;;;2.30;;
7398;SDS011;3740;50.700;7.184;2023-05-07T10:26:39;2.50;;;2.15;;
7398;SDS011;3740;50.700;7.184;2023-05-07T10:29:11;3.10;;;1.98;;
7398;SDS011;3740;50.700;7.184;2023-05-07T10:34:14;2.60;;;2.40;;
7398;SDS011;3740;50.700;7.184;2023-05-07T10:36:42;2.28;;;2.17;;
7398;SDS011;3740;50.700;7.184;2023-05-07T10:39:09;3.10;;;2.30;;
7398;SDS011;3740;50.700;7.184;2023-05-07T10:41:35;2.17;;;2.08;;
7398;SDS011;3740;50.700;7.184;2023-05-07T10:44:01;2.72;;;2.28;;
7398;SDS011;3740;50.700;7.184;2023-05-07T10:46:27;2.20;;;2.03;;
7398;SDS011;3740;50.700;7.184;2023-05-07T10:51:28;2.50;;;2.00;;
7398;SDS011;3740;50.700;7.184;2023-05-07T10:56:35;2.00;;;1.90;;
7398;SDS011;3740;50.700;7.184;2023-05-07T11:01:49;2.65;;;1.85;;
7398;SDS011;3740;50.700;7.184;2023-05-07T11:04:16;2.28;;;2.10;;
7398;SDS011;3740;50.700;7.184;2023-05-07T11:07:15;3.35;;;1.92;;
7398;SDS011;3740;50.700;7.184;2023-05-07T11:15:04;1.35;;;1.30;;
7398;SDS011;3740;50.700;7.184;2023-05-07T11:17:31;1.80;;;1.70;;
7398;SDS011;3740;50.700;7.184;2023-05-07T11:19:59;1.58;;;1.42;;
7398;SDS011;3740;50.700;7.184;2023-05-07T11:25:01;2.33;;;1.50;;
7398;SDS011;3740;50.700;7.184;2023-05-07T11:27:28;1.15;;;1.15;;
7398;SDS011;3740;50.700;7.184;2023-05-07T11:29:54;1.25;;;1.15;;
7398;SDS011;3740;50.700;7.184;2023-05-07T11:32:23;1.48;;;1.38;;
7398;SDS011;3740;50.700;7.184;2023-05-07T11:34:53;1.38;;;1.27;;
7398;SDS011;3740;50.700;7.184;2023-05-07T11:37:19;1.60;;;1.50;;
7398;SDS011;3740;50.700;7.184;2023-05-07T11:39:46;1.52;;;1.42;;
7398;SDS011;3740;50.700;7.184;2023-05-07T11:44:59;1.63;;;1.52;;
7398;SDS011;3740;50.700;7.184;2023-05-07T11:47:25;1.15;;;1.15;;
7398;SDS011;3740;50.700;7.184;2023-05-07T11:49:52;1.52;;;1.42;;
7398;SDS011;3740;50.700;7.184;2023-05-07T11:52:19;1.33;;;1.33;;
7398;SDS011;3740;50.700;7.184;2023-05-07T11:54:52;1.30;;;1.30;;
7398;SDS011;3740;50.700;7.184;2023-05-07T11:57:22;1.50;;;1.40;;
7398;SDS011;3740;50.700;7.184;2023-05-07T11:59:55;1.60;;;1.50;;
7398;SDS011;3740;50.700;7.184;2023-05-07T12:02:24;1.55;;;1.45;;
7398;SDS011;3740;50.700;7.184;2023-05-07T12:04:51;1.85;;;1.75;;
7398;SDS011;3740;50.700;7.184;2023-05-07T12:07:17;1.58;;;1.48;;
7398;SDS011;3740;50.700;7.184;2023-05-07T12:09:43;1.70;;;1.60;;
7398;SDS011;3740;50.700;7.184;2023-05-07T12:12:10;1.77;;;1.67;;
7398;SDS011;3740;50.700;7.184;2023-05-07T12:14:40;1.58;;;1.48;;
7398;SDS011;3740;50.700;7.184;2023-05-07T12:17:09;1.65;;;1.55;;
7398;SDS011;3740;50.700;7.184;2023-05-07T12:19:36;1.60;;;1.50;;
7398;SDS011;3740;50.700;7.184;2023-05-07T12:22:03;1.42;;;1.27;;
7398;SDS011;3740;50.700;7.184;2023-05-07T12:24:41;1.55;;;1.45;;
7398;SDS011;3740;50.700;7.184;2023-05-07T12:27:13;1.88;;;1.42;;
7398;SDS011;3740;50.700;7.184;2023-05-07T12:29:43;1.63;;;1.52;;
7398;SDS011;3740;50.700;7.184;2023-05-07T12:32:14;1.40;;;1.30;;
7398;SDS011;3740;50.700;7.184;2023-05-07T12:34:40;3.80;;;1.92;;
7398;SDS011;3740;50.700;7.184;2023-05-07T12:37:06;1.50;;;1.40;;
7398;SDS011;3740;50.700;7.184;2023-05-07T12:39:32;1.25;;;1.15;;
7398;SDS011;3740;50.700;7.184;2023-05-07T12:41:58;1.70;;;1.60;;
7398;SDS011;3740;50.700;7.184;2023-05-07T12:44:25;1.50;;;1.38;;
7398;SDS011;3740;50.700;7.184;2023-05-07T12:46:54;2.00;;;1.42;;
7398;SDS011;3740;50.700;7.184;2023-05-07T12:49:19;2.08;;;1.85;;
7398;SDS011;3740;50.700;7.184;2023-05-07T12:51:48;1.45;;;1.38;;
7398;SDS011;3740;50.700;7.184;2023-05-07T12:54:27;1.42;;;1.33;;
7398;SDS011;3740;50.700;7.184;2023-05-07T12:57:09;1.38;;;1.30;;
7398;SDS011;3740;50.700;7.184;2023-05-07T12:59:41;2.38;;;1.33;;
7398;SDS011;3740;50.700;7.184;2023-05-07T13:02:08;1.60;;;1.50;;
7398;SDS011;3740;50.700;7.184;2023-05-07T13:04:34;1.40;;;1.30;;
7398;SDS011;3740;50.700;7.184;2023-05-07T13:07:00;1.40;;;1.40;;
7398;SDS011;3740;50.700;7.184;2023-05-07T13:09:26;1.58;;;1.48;;
7398;SDS011;3740;50.700;7.184;2023-05-07T13:11:54;1.55;;;1.42;;
7398;SDS011;3740;50.700;7.184;2023-05-07T13:14:19;1.83;;;1.70;;
7398;SDS011;3740;50.700;7.184;2023-05-07T13:16:46;1.55;;;1.05;;
7398;SDS011;3740;50.700;7.184;2023-05-07T13:19:12;1.63;;;1.52;;
7398;SDS011;3740;50.700;7.184;2023-05-07T13:21:37;1.27;;;1.20;;
7398;SDS011;3740;50.700;7.184;2023-05-07T13:24:03;1.45;;;1.35;;
7398;SDS011;3740;50.700;7.184;2023-05-07T13:26:29;1.52;;;1.42;;
7398;SDS011;3740;50.700;7.184;2023-05-07T13:28:56;1.63;;;1.52;;
7398;SDS011;3740;50.700;7.184;2023-05-07T13:31:22;1.65;;;1.55;;
7398;SDS011;3740;50.700;7.184;2023-05-07T13:33:47;2.13;;;1.50;;
7398;SDS011;3740;50.700;7.184;2023-05-07T13:36:13;1.55;;;1.45;;
7398;SDS011;3740;50.700;7.184;2023-05-07T13:38:39;1.52;;;1.42;;
7398;SDS011;3740;50.700;7.184;2023-05-07T13:41:05;1.92;;;1.70;;
7398;SDS011;3740;50.700;7.184;2023-05-07T13:43:31;2.00;;;1.73;;
7398;SDS011;3740;50.700;7.184;2023-05-07T13:45:58;1.55;;;1.45;;
7398;SDS011;3740;50.700;7.184;2023-05-07T13:48:24;1.50;;;1.40;;
7398;SDS011;3740;50.700;7.184;2023-05-07T13:50:50;1.67;;;1.50;;
7398;SDS011;3740;50.700;7.184;2023-05-07T13:53:16;2.17;;;1.20;;
7398;SDS011;3740;50.700;7.184;2023-05-07T13:55:43;1.75;;;1.65;;
7398;SDS011;3740;50.700;7.184;2023-05-07T13:58:09;1.77;;;1.67;;
7398;SDS011;3740;50.700;7.184;2023-05-07T14:00:34;1.90;;;1.63;;
7398;SDS011;3740;50.700;7.184;2023-05-07T14:03:00;1.58;;;1.48;;
7398;SDS011;3740;50.700;7.184;2023-05-07T14:05:26;1.50;;;1.40;;
7398;SDS011;3740;50.700;7.184;2023-05-07T14:07:53;2.25;;;1.75;;
7398;SDS011;3740;50.700;7.184;2023-05-07T14:10:19;1.60;;;1.52;;
7398;SDS011;3740;50.700;7.184;2023-05-07T14:12:46;1.90;;;1.80;;
7398;SDS011;3740;50.700;7.184;2023-05-07T14:15:12;2.22;;;2.03;;
7398;SDS011;3740;50.700;7.184;2023-05-07T14:17:38;1.83;;;1.70;;
7398;SDS011;3740;50.700;7.184;2023-05-07T14:20:03;2.30;;;1.90;;
7398;SDS011;3740;50.700;7.184;2023-05-07T14:22:31;1.85;;;1.75;;
7398;SDS011;3740;50.700;7.184;2023-05-07T14:24:56;1.73;;;1.63;;
7398;SDS011;3740;50.700;7.184;2023-05-07T14:27:22;2.40;;;2.15;;
7398;SDS011;3740;50.700;7.184;2023-05-07T14:29:47;2.90;;;2.40;;
7398;SDS011;3740;50.700;7.184;2023-05-07T14:32:16;2.70;;;2.50;;
7398;SDS011;3740;50.700;7.184;2023-05-07T14:34:43;3.78;;;3.00;;
7398;SDS011;3740;50.700;7.184;2023-05-07T14:37:09;3.90;;;3.00;;
7398;SDS011;3740;50.700;7.184;2023-05-07T14:39:35;3.33;;;2.60;;
7398;SDS011;3740;50.700;7.184;2023-05-07T14:42:01;2.58;;;2.47;;
7398;SDS011;3740;50.700;7.184;2023-05-07T14:44:27;3.33;;;2.80;;
7398;SDS011;3740;50.700;7.184;2023-05-07T14:46:52;3.97;;;2.70;;
7398;SDS011;3740;50.700;7.184;2023-05-07T14:49:18;3.05;;;2.85;;
7398;SDS011;3740;50.700;7.184;2023-05-07T14:51:44;3.28;;;2.97;;
7398;SDS011;3740;50.700;7.184;2023-05-07T14:54:10;4.55;;;3.17;;
7398;SDS011;3740;50.700;7.184;2023-05-07T14:56:36;4.13;;;3.67;;
7398;SDS011;3740;50.700;7.184;2023-05-07T14:59:02;5.68;;;3.40;;
7398;SDS011;3740;50.700;7.184;2023-05-07T15:01:28;4.13;;;2.65;;
7398;SDS011;3740;50.700;7.184;2023-05-07T15:03:53;3.67;;;3.38;;
7398;SDS011;3740;50.700;7.184;2023-05-07T15:06:19;5.40;;;3.55;;
7398;SDS011;3740;50.700;7.184;2023-05-07T15:08:45;6.10;;;3.65;;
7398;SDS011;3740;50.700;7.184;2023-05-07T15:11:11;6.07;;;3.80;;
7398;SDS011;3740;50.700;7.184;2023-05-07T15:13:36;3.85;;;3.45;;
7398;SDS011;3740;50.700;7.184;2023-05-07T15:16:02;4.80;;;3.17;;
7398;SDS011;3740;50.700;7.184;2023-05-07T15:18:27;4.40;;;4.10;;
7398;SDS011;3740;50.700;7.184;2023-05-07T15:20:53;4.80;;;4.35;;
7398;SDS011;3740;50.700;7.184;2023-05-07T15:23:20;4.43;;;4.13;;
7398;SDS011;3740;50.700;7.184;2023-05-07T15:25:45;5.07;;;4.57;;
7398;SDS011;3740;50.700;7.184;2023-05-07T15:28:11;4.57;;;4.13;;
7398;SDS011;3740;50.700;7.184;2023-05-07T15:30:36;4.28;;;3.88;;
7398;SDS011;3740;50.700;7.184;2023-05-07T15:33:02;3.78;;;3.47;;
7398;SDS011;3740;50.700;7.184;2023-05-07T15:35:28;5.10;;;3.90;;